createdAt,value
2022-10-01T00:02:07.151Z,40.38
2022-10-01T00:04:36.568Z,43.42
2022-10-01T00:07:09.354Z,35.25
2022-10-01T00:09:36.680Z,43.95
2022-10-01T00:12:03.745Z,37.97
2022-10-01T00:14:30.742Z,30.52
2022-10-01T00:16:58.052Z,27.42
2022-10-01T00:19:25.377Z,29.70
2022-10-01T00:21:52.336Z,29.42
2022-10-01T00:24:19.467Z,30.27
2022-10-01T00:26:48.167Z,30.48
2022-10-01T00:29:15.525Z,30.13
2022-10-01T00:31:43.072Z,28.52
2022-10-01T00:34:12.767Z,26.17
2022-10-01T00:36:39.865Z,26.42
2022-10-01T00:39:07.112Z,27.17
2022-10-01T00:41:35.165Z,28.77
2022-10-01T00:44:24.984Z,42.13
2022-10-01T00:46:54.010Z,38.08
2022-10-01T00:49:24.927Z,29.85
2022-10-01T00:51:58.078Z,27.38
2022-10-01T00:54:46.739Z,25.05
2022-10-01T00:57:18.848Z,27.48
2022-10-01T00:59:47.287Z,26.20
2022-10-01T01:02:14.404Z,31.08
2022-10-01T01:04:42.101Z,31.27
2022-10-01T01:07:09.702Z,34.72
2022-10-01T01:09:47.113Z,35.47
2022-10-01T01:12:35.521Z,37.47
2022-10-01T01:15:17.428Z,51.95
2022-10-01T01:18:35.538Z,31.52
2022-10-01T01:21:25.163Z,28.55
2022-10-01T01:24:20.610Z,27.42
2022-10-01T01:26:59.587Z,30.58
2022-10-01T01:29:34.937Z,33.55
2022-10-01T01:32:14.009Z,37.08
2022-10-01T01:34:46.743Z,40.97
2022-10-01T01:37:17.529Z,35.53
2022-10-01T01:39:50.297Z,32.13
2022-10-01T01:42:44.894Z,32.28
2022-10-01T01:45:19.127Z,40.13
2022-10-01T01:47:49.013Z,39.35
2022-10-01T01:50:17.188Z,38.95
2022-10-01T01:52:44.174Z,36.60
2022-10-01T01:55:11.390Z,35.70
2022-10-01T01:57:42.013Z,35.92
2022-10-01T02:00:11.990Z,36.70
2022-10-01T02:02:43.049Z,35.65
2022-10-01T02:05:16.000Z,37.63
2022-10-01T02:07:54.982Z,39.03
2022-10-01T02:10:44.734Z,40.97
2022-10-01T02:13:24.103Z,40.28
2022-10-01T02:16:26.476Z,40.33
2022-10-01T02:19:18.735Z,41.95
2022-10-01T02:21:58.652Z,39.17
2022-10-01T02:24:57.180Z,40.80
2022-10-01T02:27:31.703Z,41.13
2022-10-01T02:30:03.805Z,41.38
2022-10-01T02:32:32.220Z,41.20
2022-10-01T02:35:01.582Z,39.60
2022-10-01T02:37:28.889Z,40.30
2022-10-01T02:39:57.496Z,44.20
2022-10-01T02:42:28.240Z,44.28
2022-10-01T02:44:58.434Z,44.55
2022-10-01T02:47:34.131Z,47.05
2022-10-01T02:50:02.744Z,47.13
2022-10-01T02:52:41.798Z,44.55
2022-10-01T02:55:11.600Z,47.67
2022-10-01T02:57:39.414Z,42.78
2022-10-01T03:00:12.375Z,45.95
2022-10-01T03:02:39.696Z,43.22
2022-10-01T03:05:07.651Z,39.80
2022-10-01T03:07:36.327Z,43.72
2022-10-01T03:10:07.498Z,42.80
2022-10-01T03:12:38.031Z,42.85
2022-10-01T03:15:05.556Z,43.47
2022-10-01T03:17:32.712Z,43.97
2022-10-01T03:19:59.735Z,40.83
2022-10-01T03:22:26.926Z,43.72
2022-10-01T03:24:54.334Z,42.80
2022-10-01T03:27:22.301Z,45.55
2022-10-01T03:29:50.047Z,42.22
2022-10-01T03:32:18.058Z,40.50
2022-10-01T03:34:45.294Z,38.70
2022-10-01T03:37:12.533Z,39.72
2022-10-01T03:39:39.948Z,39.85
2022-10-01T03:42:07.122Z,43.78
2022-10-01T03:44:34.637Z,38.95
2022-10-01T03:47:01.685Z,39.47
2022-10-01T03:49:28.933Z,40.22
2022-10-01T03:51:57.094Z,38.20
2022-10-01T03:54:25.254Z,40.30
2022-10-01T03:56:52.571Z,39.95
2022-10-01T03:59:19.994Z,34.45
2022-10-01T04:01:47.215Z,36.55
2022-10-01T04:04:15.024Z,36.80
2022-10-01T04:06:42.240Z,36.60
2022-10-01T04:09:09.997Z,36.15
2022-10-01T04:11:39.001Z,34.72
2022-10-01T04:14:06.568Z,35.88
2022-10-01T04:16:36.268Z,35.38
2022-10-01T04:19:04.540Z,35.72
2022-10-01T04:21:32.293Z,40.53
2022-10-01T04:24:00.125Z,41.03
2022-10-01T04:26:27.266Z,40.83
2022-10-01T04:28:54.537Z,38.60
2022-10-01T04:31:24.894Z,37.10
2022-10-01T04:33:57.090Z,33.90
2022-10-01T04:36:25.703Z,35.92
2022-10-01T04:38:58.048Z,32.63
2022-10-01T04:41:30.521Z,36.15
2022-10-01T04:44:01.362Z,35.78
2022-10-01T04:46:30.431Z,33.28
2022-10-01T04:48:58.131Z,34.58
2022-10-01T04:51:25.220Z,33.75
2022-10-01T04:53:52.261Z,32.78
2022-10-01T04:56:19.503Z,37.25
2022-10-01T04:58:46.565Z,39.22
2022-10-01T05:01:13.603Z,36.00
2022-10-01T05:03:41.326Z,32.78
2022-10-01T05:06:08.590Z,33.05
2022-10-01T05:08:36.803Z,34.83
2022-10-01T05:11:04.027Z,33.85
2022-10-01T05:13:31.938Z,33.58
2022-10-01T05:15:59.172Z,34.83
2022-10-01T05:18:26.639Z,33.50
2022-10-01T05:20:53.892Z,31.63
2022-10-01T05:23:20.949Z,30.85
2022-10-01T05:25:48.141Z,34.03
2022-10-01T05:28:21.423Z,38.88
2022-10-01T05:30:49.659Z,38.77
2022-10-01T05:33:16.798Z,33.85
2022-10-01T05:35:44.498Z,32.80
2022-10-01T05:38:11.734Z,29.27
2022-10-01T05:40:38.751Z,39.60
2022-10-01T05:43:05.732Z,36.40
2022-10-01T05:45:33.393Z,30.23
2022-10-01T05:48:02.690Z,30.00
2022-10-01T05:50:31.839Z,34.92
2022-10-01T05:53:00.664Z,27.05
2022-10-01T05:55:33.412Z,26.02
2022-10-01T05:58:06.331Z,24.55
2022-10-01T06:00:35.772Z,23.43
2022-10-01T06:03:06.446Z,23.73
2022-10-01T06:05:35.306Z,25.17
2022-10-01T06:08:05.587Z,19.85
2022-10-01T06:10:33.157Z,20.33
2022-10-01T06:13:01.924Z,16.25
2022-10-01T06:15:34.877Z,16.73
2022-10-01T06:18:02.867Z,15.80
2022-10-01T06:20:30.386Z,15.65
2022-10-01T06:22:58.606Z,15.10
2022-10-01T06:25:30.709Z,13.77
2022-10-01T06:28:01.717Z,13.23
2022-10-01T06:30:31.814Z,15.55
2022-10-01T06:33:08.462Z,15.00
2022-10-01T06:35:40.226Z,15.80
2022-10-01T06:38:08.107Z,15.73
2022-10-01T06:40:35.431Z,16.05
2022-10-01T06:43:03.184Z,16.42
2022-10-01T06:45:31.393Z,16.25
2022-10-01T06:48:03.132Z,16.92
2022-10-01T06:50:31.955Z,16.48
2022-10-01T06:53:00.099Z,15.52
2022-10-01T06:55:29.892Z,16.48
2022-10-01T06:57:59.717Z,16.00
2022-10-01T07:00:29.179Z,17.83
2022-10-01T07:02:56.820Z,19.30
2022-10-01T07:05:25.069Z,16.45
2022-10-01T07:07:53.684Z,14.18
2022-10-01T07:10:22.287Z,15.27
2022-10-01T07:12:50.373Z,16.08
2022-10-01T07:15:22.798Z,16.60
2022-10-01T07:17:51.278Z,16.20
2022-10-01T07:20:20.536Z,16.15
2022-10-01T07:22:49.018Z,16.17
2022-10-01T07:25:17.064Z,14.98
2022-10-01T07:27:44.151Z,13.55
2022-10-01T07:30:11.569Z,15.10
2022-10-01T07:32:38.788Z,15.20
2022-10-01T07:35:06.867Z,13.88
2022-10-01T07:37:33.937Z,15.50
2022-10-01T07:40:06.572Z,15.50
2022-10-01T07:42:35.616Z,13.55
2022-10-01T07:45:06.614Z,13.20
2022-10-01T07:47:33.783Z,12.32
2022-10-01T07:50:00.889Z,11.68
2022-10-01T07:52:28.306Z,12.25
2022-10-01T07:54:55.269Z,12.88
2022-10-01T07:57:22.459Z,11.98
2022-10-01T07:59:54.839Z,12.95
2022-10-01T08:02:23.082Z,12.93
2022-10-01T08:05:09.191Z,12.65
2022-10-01T08:07:36.839Z,12.82
2022-10-01T08:10:04.692Z,14.15
2022-10-01T08:12:31.734Z,12.20
2022-10-01T08:15:08.307Z,17.88
2022-10-01T08:17:35.849Z,15.65
2022-10-01T08:20:03.255Z,14.00
2022-10-01T08:22:30.625Z,15.27
2022-10-01T08:24:57.661Z,17.67
2022-10-01T08:27:25.711Z,16.30
2022-10-01T08:29:53.501Z,16.42
2022-10-01T08:32:21.829Z,17.15
2022-10-01T08:34:54.495Z,16.25
2022-10-01T08:37:27.995Z,14.32
2022-10-01T08:39:56.536Z,14.43
2022-10-01T08:42:40.790Z,16.10
2022-10-01T08:45:40.496Z,14.67
2022-10-01T08:48:35.177Z,14.88
2022-10-01T08:51:17.083Z,14.50
2022-10-01T08:53:50.166Z,13.05
2022-10-01T08:56:36.763Z,14.07
2022-10-01T08:59:29.984Z,12.27
2022-10-01T09:01:59.161Z,11.85
2022-10-01T09:04:29.920Z,12.45
2022-10-01T09:07:10.170Z,11.55
2022-10-01T09:09:47.317Z,12.90
2022-10-01T09:12:29.376Z,11.65
2022-10-01T09:15:22.231Z,10.75
2022-10-01T09:17:52.083Z,12.77
2022-10-01T09:20:43.778Z,11.68
2022-10-01T09:23:29.996Z,13.63
2022-10-01T09:25:59.756Z,10.88
2022-10-01T09:28:33.498Z,11.75
2022-10-01T09:31:26.240Z,12.40
2022-10-01T09:34:12.452Z,14.30
2022-10-01T09:36:52.313Z,15.38
2022-10-01T09:39:41.062Z,14.10
2022-10-01T09:42:08.821Z,17.08
2022-10-01T09:44:37.602Z,17.40
2022-10-01T09:47:17.907Z,13.95
2022-10-01T09:49:48.237Z,13.85
2022-10-01T09:52:26.586Z,15.77
2022-10-01T09:55:04.961Z,21.88
2022-10-01T09:57:36.542Z,18.95
2022-10-01T10:00:09.963Z,21.55
2022-10-01T10:02:48.356Z,10.48
2022-10-01T10:05:25.502Z,11.25
2022-10-01T10:07:58.446Z,11.80
2022-10-01T10:10:36.939Z,11.10
2022-10-01T10:13:10.761Z,13.20
2022-10-01T10:15:50.916Z,13.70
2022-10-01T10:18:28.648Z,10.75
2022-10-01T10:20:56.622Z,13.25
2022-10-01T10:23:26.850Z,13.23
2022-10-01T10:25:59.964Z,11.98
2022-10-01T10:28:28.520Z,12.05
2022-10-01T10:30:57.100Z,13.80
2022-10-01T10:33:26.293Z,11.75
2022-10-01T10:36:02.160Z,16.08
2022-10-01T10:38:38.543Z,17.25
2022-10-01T10:41:06.282Z,12.98
2022-10-01T10:43:37.746Z,11.82
2022-10-01T10:46:07.196Z,12.02
2022-10-01T10:48:43.917Z,11.73
2022-10-01T10:51:10.944Z,10.20
2022-10-01T10:53:44.086Z,11.82
2022-10-01T10:56:27.578Z,13.68
2022-10-01T10:58:54.834Z,12.10
2022-10-01T11:01:28.590Z,13.85
2022-10-01T11:03:58.836Z,12.82
2022-10-01T11:06:26.109Z,10.52
2022-10-01T11:09:10.462Z,11.02
2022-10-01T11:12:05.225Z,8.85
2022-10-01T11:14:55.437Z,10.25
2022-10-01T11:17:47.621Z,9.43
2022-10-01T11:20:23.964Z,9.43
2022-10-01T11:23:18.921Z,10.88
2022-10-01T11:26:03.984Z,9.93
2022-10-01T11:28:34.350Z,10.32
2022-10-01T11:31:31.344Z,13.68
2022-10-01T11:34:19.805Z,10.63
2022-10-01T11:37:00.399Z,9.80
2022-10-01T11:39:29.660Z,10.48
2022-10-01T11:42:12.677Z,15.88
2022-10-01T11:44:44.752Z,10.95
2022-10-01T11:47:20.758Z,10.27
2022-10-01T11:50:20.477Z,11.18
2022-10-01T11:52:53.533Z,12.10
2022-10-01T11:55:51.357Z,9.93
2022-10-01T11:58:40.312Z,10.77
2022-10-01T12:01:18.753Z,14.93
2022-10-01T12:03:58.962Z,10.52
2022-10-01T12:06:44.937Z,10.50
2022-10-01T12:09:24.393Z,12.75
2022-10-01T12:11:59.015Z,15.45
2022-10-01T12:14:44.195Z,19.77
2022-10-01T12:17:40.196Z,12.23
2022-10-01T12:20:20.990Z,17.20
2022-10-01T12:22:50.006Z,12.27
2022-10-01T12:25:19.335Z,13.25
2022-10-01T12:28:04.751Z,10.35
2022-10-01T12:31:08.179Z,9.65
2022-10-01T12:33:44.756Z,10.95
2022-10-01T12:36:28.662Z,10.45
2022-10-01T12:39:34.362Z,10.68
2022-10-01T12:42:10.484Z,9.50
2022-10-01T12:45:10.296Z,11.30
2022-10-01T12:47:43.778Z,8.85
2022-10-01T12:50:38.822Z,11.07
2022-10-01T12:53:23.311Z,11.52
2022-10-01T12:56:11.375Z,9.73
2022-10-01T12:59:13.494Z,10.93
2022-10-01T13:01:56.118Z,10.20
2022-10-01T13:05:05.156Z,10.68
2022-10-01T13:07:52.614Z,18.95
2022-10-01T13:10:29.775Z,18.05
2022-10-01T13:13:10.196Z,14.45
2022-10-01T13:15:47.701Z,18.17
2022-10-01T13:18:25.813Z,12.38
2022-10-01T13:20:59.402Z,10.23
2022-10-01T13:24:01.419Z,16.25
2022-10-01T13:26:55.980Z,9.73
2022-10-01T13:29:47.960Z,9.20
2022-10-01T13:32:45.647Z,35.28
2022-10-01T13:35:36.118Z,14.52
2022-10-01T13:38:17.530Z,10.60
2022-10-01T13:40:44.833Z,11.35
2022-10-01T13:43:21.323Z,10.05
2022-10-01T13:45:51.907Z,7.57
2022-10-01T13:48:29.187Z,10.60
2022-10-01T13:51:03.263Z,11.02
2022-10-01T13:53:37.801Z,9.68
2022-10-01T13:56:05.978Z,10.23
2022-10-01T13:58:35.218Z,10.98
2022-10-01T14:01:06.350Z,11.18
2022-10-01T14:04:03.844Z,8.77
2022-10-01T14:06:39.294Z,10.73
2022-10-01T14:09:25.376Z,9.57
2022-10-01T14:12:26.045Z,8.00
2022-10-01T14:15:15.428Z,9.35
2022-10-01T14:17:44.674Z,9.70
2022-10-01T14:20:21.575Z,8.57
2022-10-01T14:23:00.512Z,10.50
2022-10-01T14:25:39.861Z,14.90
2022-10-01T14:28:30.568Z,8.07
2022-10-01T14:31:16.412Z,9.07
2022-10-01T14:33:43.577Z,8.45
2022-10-01T14:36:23.175Z,12.65
2022-10-01T14:38:50.163Z,10.45
2022-10-01T14:41:24.114Z,7.97
2022-10-01T14:43:51.060Z,14.80
2022-10-01T14:46:19.095Z,11.43
2022-10-01T14:48:58.364Z,9.70
2022-10-01T14:51:30.745Z,13.10
2022-10-01T14:54:00.210Z,15.50
2022-10-01T14:56:28.670Z,19.08
2022-10-01T14:59:02.654Z,10.60
2022-10-01T15:01:29.906Z,16.02
2022-10-01T15:03:56.945Z,22.08
2022-10-01T15:06:28.706Z,18.63
2022-10-01T15:09:03.497Z,18.95
2022-10-01T15:11:33.641Z,24.08
2022-10-01T15:14:10.610Z,28.92
2022-10-01T15:16:38.340Z,28.73
2022-10-01T15:19:13.842Z,34.05
2022-10-01T15:24:23.031Z,20.40
2022-10-01T15:26:50.849Z,22.73
2022-10-01T15:29:18.346Z,14.25
2022-10-01T15:31:47.491Z,16.08
2022-10-01T15:34:17.833Z,13.75
2022-10-01T15:36:46.472Z,13.20
2022-10-01T15:39:34.775Z,14.15
2022-10-01T15:42:08.850Z,12.80
2022-10-01T15:44:47.135Z,17.67
2022-10-01T15:47:19.756Z,15.98
2022-10-01T15:50:16.225Z,22.02
2022-10-01T15:52:55.743Z,17.60
2022-10-01T15:55:41.480Z,16.73
2022-10-01T15:58:11.733Z,14.13
2022-10-01T16:00:47.585Z,15.27
2022-10-01T16:03:33.303Z,23.80
2022-10-01T16:06:04.996Z,38.35
2022-10-01T16:08:48.174Z,23.52
2022-10-01T16:11:31.921Z,23.27
2022-10-01T16:14:23.987Z,18.77
2022-10-01T16:17:11.274Z,16.33
2022-10-01T16:19:38.456Z,14.00
2022-10-01T16:22:39.823Z,14.88
2022-10-01T16:25:29.088Z,13.70
2022-10-01T16:28:04.369Z,18.20
2022-10-01T16:30:33.877Z,17.48
2022-10-01T16:33:04.553Z,14.18
2022-10-01T16:35:35.817Z,13.30
2022-10-01T16:38:10.630Z,16.27
2022-10-01T16:40:44.644Z,15.27
2022-10-01T16:43:19.852Z,14.65
2022-10-01T16:48:20.605Z,16.13
2022-10-01T16:50:48.471Z,15.48
2022-10-01T16:53:18.212Z,15.00
2022-10-01T16:55:46.813Z,13.73
2022-10-01T16:58:14.100Z,15.25
2022-10-01T17:00:42.000Z,22.55
2022-10-01T17:03:16.089Z,16.48
2022-10-01T17:05:46.573Z,20.20
2022-10-01T17:08:17.173Z,17.60
2022-10-01T17:10:48.492Z,16.20
2022-10-01T17:13:15.935Z,17.35
2022-10-01T17:15:50.701Z,20.80
2022-10-01T17:20:48.185Z,18.88
2022-10-01T17:23:17.421Z,18.65
2022-10-01T17:25:45.360Z,21.35
2022-10-01T17:28:15.220Z,16.38
2022-10-01T17:30:44.204Z,13.05
2022-10-01T17:33:13.800Z,14.23
2022-10-01T17:35:46.534Z,20.35
2022-10-01T17:38:13.823Z,15.63
2022-10-01T17:40:42.189Z,22.23
2022-10-01T17:43:14.044Z,19.33
2022-10-01T17:45:42.054Z,22.95
2022-10-01T17:48:10.274Z,19.23
2022-10-01T17:50:43.804Z,20.17
2022-10-01T17:53:12.441Z,22.38
2022-10-01T17:55:41.932Z,24.52
2022-10-01T17:58:09.969Z,17.98
2022-10-01T18:00:37.265Z,25.92
2022-10-01T18:03:04.633Z,16.88
2022-10-01T18:05:31.708Z,19.08
2022-10-01T18:07:58.854Z,41.50
2022-10-01T18:10:26.330Z,24.17
2022-10-01T18:12:53.779Z,19.15
2022-10-01T18:15:23.927Z,17.35
2022-10-01T18:18:48.550Z,19.45
2022-10-01T18:20:41.278Z,16.85
2022-10-01T18:23:08.603Z,14.23
2022-10-01T18:25:35.663Z,15.82
2022-10-01T18:28:02.763Z,18.52
2022-10-01T18:30:30.364Z,16.45
2022-10-01T18:32:57.506Z,15.25
2022-10-01T18:35:31.739Z,17.83
2022-10-01T18:38:04.792Z,15.55
2022-10-01T18:40:43.003Z,17.10
2022-10-01T18:43:22.148Z,24.58
2022-10-01T18:45:55.953Z,22.77
2022-10-01T18:48:26.253Z,20.60
2022-10-01T18:51:19.719Z,18.70
2022-10-01T18:54:05.945Z,18.00
2022-10-01T18:56:38.834Z,18.67
2022-10-01T18:59:38.584Z,18.17
2022-10-01T19:02:13.054Z,16.48
2022-10-01T19:05:17.202Z,16.77
2022-10-01T19:07:50.094Z,17.58
2022-10-01T19:10:37.839Z,18.95
2022-10-01T19:13:17.917Z,22.80
2022-10-01T19:15:48.184Z,26.40
2022-10-01T19:18:41.641Z,31.73
2022-10-01T19:21:27.712Z,27.08
2022-10-01T19:24:36.623Z,30.83
2022-10-01T19:27:43.282Z,19.65
2022-10-01T19:30:15.876Z,15.75
2022-10-01T19:32:49.815Z,20.15
2022-10-01T19:35:22.906Z,17.30
2022-10-01T19:38:02.943Z,14.82
2022-10-01T19:40:38.480Z,15.57
2022-10-01T19:43:49.509Z,17.58
2022-10-01T19:46:35.001Z,25.02
2022-10-01T19:49:08.735Z,37.22
2022-10-01T19:51:57.320Z,21.50
2022-10-01T19:54:37.395Z,27.95
2022-10-01T19:57:39.035Z,22.05
2022-10-01T20:00:12.244Z,16.85
2022-10-01T20:03:18.037Z,14.05
2022-10-01T20:06:08.772Z,10.23
2022-10-01T20:08:55.737Z,10.05
2022-10-01T20:11:31.263Z,14.43
2022-10-01T20:14:40.251Z,19.90
2022-10-01T20:17:29.486Z,22.67
2022-10-01T20:20:24.117Z,11.55
2022-10-01T20:23:24.846Z,15.63
2022-10-01T20:26:21.650Z,11.98
2022-10-01T20:29:21.138Z,9.65
2022-10-01T20:32:13.344Z,19.30
2022-10-01T20:35:05.815Z,19.27
2022-10-01T20:37:41.078Z,18.98
2022-10-01T20:40:14.511Z,19.35
2022-10-01T20:42:47.627Z,21.67
2022-10-01T20:45:26.367Z,18.48
2022-10-01T20:48:16.770Z,15.77
2022-10-01T20:50:47.503Z,17.95
2022-10-01T20:57:39.133Z,15.38
2022-10-01T21:00:27.559Z,20.45
2022-10-01T21:03:17.246Z,93.90
2022-10-01T21:06:07.861Z,22.85
2022-10-01T21:08:47.290Z,18.27
2022-10-01T21:11:28.336Z,16.73
2022-10-01T21:14:06.215Z,23.27
2022-10-01T21:16:48.944Z,18.63
2022-10-01T21:19:18.324Z,13.70
2022-10-01T21:26:04.345Z,13.73
2022-10-01T21:29:15.758Z,11.75
2022-10-01T21:40:26.444Z,22.40
2022-10-01T21:45:50.588Z,17.67
2022-10-01T21:48:25.105Z,12.85
2022-10-01T21:50:53.990Z,12.40
2022-10-01T21:53:42.824Z,11.65
2022-10-01T21:56:21.762Z,11.20
2022-10-01T21:59:25.973Z,11.80
2022-10-01T22:02:04.709Z,12.05
2022-10-01T22:04:48.467Z,13.80
2022-10-01T22:07:28.191Z,27.75
2022-10-01T22:10:27.417Z,41.90
2022-10-01T22:13:00.768Z,20.05
2022-10-01T22:15:33.487Z,15.73
2022-10-01T22:18:04.009Z,13.02
2022-10-01T22:20:34.899Z,24.50
2022-10-01T22:23:08.480Z,18.73
2022-10-01T22:25:43.407Z,21.20
2022-10-01T22:30:44.896Z,16.90
2022-10-01T22:33:17.184Z,20.33
2022-10-01T22:35:46.550Z,19.83
2022-10-01T22:38:25.503Z,20.33
2022-10-01T22:41:02.146Z,20.73
2022-10-01T22:43:29.393Z,20.60
2022-10-01T22:46:17.915Z,19.10
2022-10-01T22:48:53.131Z,25.13
2022-10-01T22:51:29.252Z,16.20
2022-10-01T22:54:23.949Z,18.00
2022-10-01T22:56:59.457Z,17.27
2022-10-01T22:59:35.460Z,21.50
2022-10-01T23:02:21.475Z,19.17
2022-10-01T23:05:27.523Z,17.88
2022-10-01T23:08:31.506Z,17.17
2022-10-01T23:11:27.689Z,17.77
2022-10-01T23:14:13.098Z,17.42
2022-10-01T23:17:03.883Z,16.25
2022-10-01T23:19:55.877Z,17.70
2022-10-01T23:22:29.059Z,16.15
2022-10-01T23:25:24.040Z,16.42
2022-10-01T23:28:27.227Z,16.83
2022-10-01T23:31:14.837Z,16.88
2022-10-01T23:33:48.991Z,16.73
2022-10-01T23:36:37.124Z,16.83
2022-10-01T23:39:33.130Z,16.48
2022-10-01T23:42:19.422Z,16.75
2022-10-01T23:44:50.166Z,18.42
2022-10-01T23:47:25.256Z,17.23
2022-10-01T23:49:55.220Z,17.20
2022-10-01T23:52:34.645Z,18.38
2022-10-01T23:55:33.270Z,18.42
2022-10-01T23:58:03.367Z,18.02
